createdAt,value
2022-12-08T00:02:39.045Z,9.35
2022-12-08T00:07:59.455Z,12.45
2022-12-08T00:13:00.818Z,16.42
2022-12-08T00:18:02.269Z,11.05
2022-12-08T00:23:04.309Z,15.85
2022-12-08T00:28:05.702Z,14.75
2022-12-08T00:33:07.089Z,16.15
2022-12-08T00:38:08.458Z,22.52
2022-12-08T00:43:09.797Z,13.73
2022-12-08T00:48:11.169Z,17.70
2022-12-08T00:53:12.508Z,15.63
2022-12-08T00:58:13.865Z,17.25
2022-12-08T01:03:15.299Z,14.40
2022-12-08T01:08:16.826Z,15.93
2022-12-08T01:13:18.193Z,14.70
2022-12-08T01:18:19.555Z,18.52
2022-12-08T01:23:20.962Z,17.15
2022-12-08T01:28:22.315Z,24.70
2022-12-08T01:33:23.935Z,20.42
2022-12-08T01:38:25.347Z,17.83
2022-12-08T01:43:50.661Z,19.77
2022-12-08T01:48:56.757Z,16.75
2022-12-08T01:53:58.109Z,22.25
2022-12-08T01:58:59.528Z,18.80
2022-12-08T02:04:03.093Z,21.70
2022-12-08T02:09:05.965Z,18.38
2022-12-08T02:14:10.794Z,20.25
2022-12-08T02:19:55.025Z,22.48
2022-12-08T02:25:22.687Z,19.20
2022-12-08T02:30:29.771Z,23.00
2022-12-08T02:35:44.844Z,24.38
2022-12-08T02:41:18.749Z,19.90
2022-12-08T02:46:29.819Z,23.48
2022-12-08T02:51:31.261Z,18.13
2022-12-08T02:56:40.947Z,22.55
2022-12-08T03:02:13.506Z,26.30
2022-12-08T03:07:31.727Z,24.35
2022-12-08T03:12:49.418Z,20.95
2022-12-08T03:17:54.983Z,19.08
2022-12-08T03:22:59.821Z,22.25
2022-12-08T03:28:01.289Z,24.63
2022-12-08T03:33:09.794Z,21.27
2022-12-08T03:38:14.941Z,23.35
2022-12-08T03:43:16.295Z,25.73
2022-12-08T03:48:17.656Z,25.23
2022-12-08T03:53:19.086Z,23.92
2022-12-08T03:58:20.458Z,23.52
2022-12-08T04:03:21.850Z,30.88
2022-12-08T04:08:23.323Z,29.92
2022-12-08T04:13:24.806Z,22.88
2022-12-08T04:18:26.241Z,26.85
2022-12-08T04:23:27.679Z,28.92
2022-12-08T04:28:31.655Z,24.27
2022-12-08T04:33:35.055Z,28.38
2022-12-08T04:38:36.710Z,29.83
2022-12-08T04:43:38.179Z,24.23
2022-12-08T04:48:41.047Z,28.92
2022-12-08T04:53:46.458Z,27.67
2022-12-08T04:58:48.387Z,29.92
2022-12-08T05:03:49.770Z,30.15
2022-12-08T05:08:51.319Z,27.50
2022-12-08T05:13:52.683Z,30.58
2022-12-08T05:18:54.056Z,24.23
2022-12-08T05:23:55.399Z,29.05
2022-12-08T05:28:56.958Z,27.33
2022-12-08T05:34:02.752Z,28.98
2022-12-08T05:39:04.434Z,28.27
2022-12-08T05:44:06.423Z,26.20
2022-12-08T05:49:07.874Z,27.42
2022-12-08T05:54:09.621Z,29.27
2022-12-08T05:59:10.947Z,24.42
2022-12-08T06:04:12.337Z,27.70
2022-12-08T06:09:13.728Z,24.10
2022-12-08T06:14:15.075Z,24.73
2022-12-08T06:19:16.441Z,26.33
2022-12-08T06:24:17.778Z,24.38
2022-12-08T06:29:19.121Z,24.13
2022-12-08T06:34:20.445Z,21.90
2022-12-08T06:39:21.777Z,19.35
2022-12-08T06:44:23.342Z,25.00
2022-12-08T06:49:24.725Z,20.13
2022-12-08T06:54:26.546Z,17.90
2022-12-08T06:59:27.885Z,23.70
2022-12-08T07:04:29.345Z,20.75
2022-12-08T07:09:30.703Z,21.17
2022-12-08T07:14:32.091Z,18.52
2022-12-08T07:19:33.494Z,24.73
2022-12-08T07:24:34.848Z,21.40
2022-12-08T07:29:36.181Z,18.63
2022-12-08T07:34:37.524Z,22.58
2022-12-08T07:39:38.886Z,17.80
2022-12-08T07:44:40.222Z,21.67
2022-12-08T07:49:41.666Z,23.25
2022-12-08T07:54:43.108Z,24.20
2022-12-08T07:59:44.469Z,24.38
2022-12-08T08:04:50.225Z,23.38
2022-12-08T08:09:51.679Z,22.65
2022-12-08T08:14:53.025Z,27.05
2022-12-08T08:19:54.456Z,25.73
2022-12-08T08:24:55.821Z,23.95
2022-12-08T08:29:57.149Z,23.77
2022-12-08T08:34:58.489Z,24.55
2022-12-08T08:39:59.842Z,23.23
2022-12-08T08:45:01.551Z,19.52
2022-12-08T08:50:04.452Z,24.80
2022-12-08T08:55:06.618Z,20.70
2022-12-08T09:00:10.109Z,23.95
2022-12-08T09:05:11.543Z,21.35
2022-12-08T09:10:12.976Z,21.75
2022-12-08T09:15:14.381Z,25.35
2022-12-08T09:20:15.838Z,23.60
2022-12-08T09:25:17.297Z,21.90
2022-12-08T09:30:18.656Z,23.95
2022-12-08T09:35:20.098Z,22.13
2022-12-08T09:40:24.056Z,23.40
2022-12-08T09:45:29.919Z,19.17
2022-12-08T09:50:56.043Z,19.52
2022-12-08T09:56:03.655Z,16.52
2022-12-08T10:06:30.560Z,16.90
2022-12-08T10:11:56.621Z,17.90
2022-12-08T10:17:04.563Z,14.20
2022-12-08T10:22:18.839Z,13.73
2022-12-08T10:27:20.947Z,15.30
2022-12-08T10:32:28.053Z,16.08
2022-12-08T10:37:29.497Z,15.40
2022-12-08T10:42:37.903Z,14.02
2022-12-08T10:47:45.010Z,16.08
2022-12-08T10:52:58.489Z,12.68
2022-12-08T10:57:59.856Z,15.00
2022-12-08T11:03:03.857Z,13.95
2022-12-08T11:08:05.927Z,15.48
2022-12-08T11:13:19.645Z,11.20
2022-12-08T11:18:29.695Z,12.23
2022-12-08T11:23:31.177Z,12.75
2022-12-08T11:28:32.789Z,12.40
2022-12-08T11:33:34.589Z,12.48
2022-12-08T11:38:41.821Z,13.68
2022-12-08T11:44:01.486Z,11.07
2022-12-08T11:49:07.227Z,11.55
2022-12-08T11:54:08.963Z,10.93
2022-12-08T11:59:32.284Z,12.63
2022-12-08T12:04:44.459Z,12.85
2022-12-08T12:10:23.219Z,11.80
2022-12-08T12:15:46.997Z,15.68
2022-12-08T12:20:54.450Z,10.32
2022-12-08T12:26:01.108Z,12.00
2022-12-08T12:31:08.267Z,14.82
2022-12-08T12:36:11.067Z,8.80
2022-12-08T12:41:14.295Z,10.05
2022-12-08T12:46:24.738Z,13.80
2022-12-08T12:51:44.977Z,10.32
2022-12-08T12:56:49.283Z,14.60
2022-12-08T13:01:54.923Z,11.25
2022-12-08T13:06:56.496Z,8.13
2022-12-08T13:12:07.166Z,12.80
2022-12-08T13:17:13.373Z,10.90
2022-12-08T13:22:52.171Z,10.48
2022-12-08T13:27:54.505Z,7.85
2022-12-08T13:38:25.725Z,8.77
2022-12-08T13:43:57.791Z,9.20
2022-12-08T13:51:05.857Z,6.80
2022-12-08T13:55:13.590Z,9.98
2022-12-08T14:00:05.752Z,11.07
2022-12-08T14:05:35.204Z,4.15
2022-12-08T14:10:31.888Z,4.18
2022-12-08T14:15:37.636Z,8.00
2022-12-08T14:21:04.948Z,3.37
2022-12-08T14:26:04.869Z,5.80
2022-12-08T14:31:09.159Z,4.95
2022-12-08T14:36:12.310Z,4.95
2022-12-08T14:41:14.462Z,3.80
2022-12-08T14:46:21.678Z,3.92
2022-12-08T14:51:30.937Z,4.78
2022-12-08T14:56:42.884Z,4.60
2022-12-08T15:01:45.766Z,4.38
2022-12-08T15:07:00.662Z,5.65
2022-12-08T15:12:24.729Z,4.32
2022-12-08T15:17:40.258Z,6.30
2022-12-08T15:22:41.625Z,6.97
2022-12-08T15:27:50.050Z,4.45
2022-12-08T15:32:54.058Z,2.20
2022-12-08T15:37:56.705Z,2.28
2022-12-08T15:42:58.120Z,2.15
2022-12-08T15:47:59.508Z,1.65
2022-12-08T15:53:01.443Z,2.33
2022-12-08T15:58:52.418Z,2.17
2022-12-08T16:09:00.741Z,4.32
2022-12-08T16:15:01.386Z,2.15
2022-12-08T16:19:33.573Z,3.28
2022-12-08T16:24:34.945Z,4.70
2022-12-08T16:29:36.324Z,4.07
2022-12-08T16:34:37.774Z,4.13
2022-12-08T16:39:45.463Z,4.70
2022-12-08T16:44:47.174Z,4.10
2022-12-08T16:49:48.511Z,11.15
2022-12-08T16:54:50.004Z,6.50
2022-12-08T16:59:51.350Z,6.75
2022-12-08T17:04:52.847Z,9.23
2022-12-08T17:09:54.325Z,8.23
2022-12-08T17:14:55.746Z,14.52
2022-12-08T17:19:57.287Z,14.80
2022-12-08T17:24:58.863Z,16.75
2022-12-08T17:30:00.255Z,18.42
2022-12-08T17:35:01.685Z,13.77
2022-12-08T17:40:03.781Z,15.15
2022-12-08T17:45:07.400Z,18.70
2022-12-08T17:50:09.530Z,13.90
2022-12-08T17:55:10.946Z,16.77
2022-12-08T18:00:13.614Z,16.77
2022-12-08T18:05:15.275Z,9.27
2022-12-08T18:10:17.679Z,10.00
2022-12-08T18:15:20.037Z,9.35
2022-12-08T18:20:21.591Z,11.07
2022-12-08T18:25:22.999Z,11.98
2022-12-08T18:30:24.685Z,11.05
2022-12-08T18:35:26.915Z,17.52
2022-12-08T18:40:28.784Z,12.85
2022-12-08T18:45:30.187Z,13.23
2022-12-08T18:50:31.554Z,50.05
2022-12-08T18:55:32.939Z,36.53
2022-12-08T19:00:34.358Z,23.85
2022-12-08T19:05:35.733Z,15.35
2022-12-08T19:10:38.133Z,28.00
2022-12-08T19:15:39.537Z,19.92
2022-12-08T19:20:40.948Z,14.52
2022-12-08T19:25:42.354Z,16.75
2022-12-08T19:30:43.758Z,18.27
2022-12-08T19:35:52.160Z,16.90
2022-12-08T19:41:12.348Z,18.05
2022-12-08T19:46:13.978Z,16.83
2022-12-08T19:51:15.452Z,21.42
2022-12-08T19:56:16.819Z,14.32
2022-12-08T20:01:18.236Z,14.57
2022-12-08T20:06:20.050Z,17.20
2022-12-08T20:11:21.475Z,15.68
2022-12-08T20:16:24.121Z,15.60
2022-12-08T20:21:25.681Z,17.35
2022-12-08T20:26:27.133Z,14.80
2022-12-08T20:31:30.269Z,19.02
2022-12-08T20:36:31.683Z,16.33
2022-12-08T20:41:38.807Z,13.98
2022-12-08T20:46:44.948Z,20.42
2022-12-08T20:51:49.886Z,16.15
2022-12-08T20:56:51.629Z,14.32
2022-12-08T21:01:53.661Z,15.82
2022-12-08T21:06:55.472Z,17.92
2022-12-08T21:11:56.992Z,14.10
2022-12-08T21:16:58.558Z,14.23
2022-12-08T21:22:00.042Z,16.48
2022-12-08T21:27:01.543Z,13.55
2022-12-08T21:32:03.165Z,15.50
2022-12-08T21:37:04.681Z,15.65
2022-12-08T21:42:34.241Z,14.90
2022-12-08T21:47:36.318Z,17.17
2022-12-08T21:52:39.826Z,12.48
2022-12-08T21:57:41.336Z,13.38
2022-12-08T22:02:43.596Z,16.50
2022-12-08T22:07:45.256Z,15.32
2022-12-08T22:12:46.999Z,16.10
2022-12-08T22:17:48.491Z,13.18
2022-12-08T22:22:50.340Z,15.93
2022-12-08T22:27:52.020Z,15.80
2022-12-08T22:32:53.649Z,13.52
2022-12-08T22:37:55.290Z,20.20
2022-12-08T22:42:57.234Z,16.50
2022-12-08T22:47:58.884Z,16.35
2022-12-08T22:53:00.468Z,14.10
2022-12-08T22:58:02.118Z,13.07
2022-12-08T23:03:04.816Z,13.65
2022-12-08T23:08:08.291Z,14.52
2022-12-08T23:13:10.115Z,12.77
2022-12-08T23:18:15.801Z,13.52
2022-12-08T23:23:17.213Z,11.82
2022-12-08T23:28:18.567Z,16.05
2022-12-08T23:33:19.982Z,14.63
2022-12-08T23:38:21.443Z,13.73
2022-12-08T23:43:22.821Z,12.50
2022-12-08T23:48:24.334Z,13.60
2022-12-08T23:53:28.296Z,13.35
2022-12-08T23:58:31.263Z,14.63
